createdAt,value
2022-09-11T00:01:22.330Z,12.50
2022-09-11T00:03:50.819Z,6.93
2022-09-11T00:06:29.251Z,8.98
2022-09-11T00:09:02.177Z,11.57
2022-09-11T00:11:33.035Z,8.52
2022-09-11T00:14:01.870Z,9.63
2022-09-11T00:16:32.629Z,8.43
2022-09-11T00:19:02.218Z,9.20
2022-09-11T00:21:30.883Z,8.48
2022-09-11T00:24:00.514Z,8.05
2022-09-11T00:26:28.927Z,11.15
2022-09-11T00:28:57.356Z,9.13
2022-09-11T00:31:28.355Z,11.82
2022-09-11T00:33:57.165Z,8.37
2022-09-11T00:36:27.347Z,12.82
2022-09-11T00:38:56.086Z,8.95
2022-09-11T00:41:27.832Z,7.65
2022-09-11T00:44:02.290Z,9.73
2022-09-11T00:46:43.067Z,9.10
2022-09-11T00:49:24.718Z,10.20
2022-09-11T00:51:58.309Z,9.35
2022-09-11T00:54:31.061Z,11.18
2022-09-11T00:57:03.878Z,11.82
2022-09-11T00:59:34.399Z,9.63
2022-09-11T01:02:02.911Z,9.48
2022-09-11T01:04:31.522Z,9.05
2022-09-11T01:07:01.204Z,8.67
2022-09-11T01:09:30.761Z,9.23
2022-09-11T01:12:06.766Z,7.60
2022-09-11T01:14:45.170Z,8.85
2022-09-11T01:17:23.394Z,8.23
2022-09-11T01:20:15.766Z,10.87
2022-09-11T01:23:03.560Z,7.43
2022-09-11T01:25:39.352Z,8.73
2022-09-11T01:28:13.649Z,6.93
2022-09-11T01:30:47.500Z,10.13
2022-09-11T01:33:23.656Z,6.83
2022-09-11T01:36:00.641Z,7.07
2022-09-11T01:38:34.765Z,7.83
2022-09-11T01:41:08.840Z,6.75
2022-09-11T01:43:42.952Z,10.35
2022-09-11T01:46:13.465Z,8.13
2022-09-11T01:48:47.135Z,8.95
2022-09-11T01:51:19.976Z,9.30
2022-09-11T01:53:52.297Z,19.60
2022-09-11T01:56:23.730Z,14.15
2022-09-11T01:58:58.358Z,15.95
2022-09-11T02:01:31.061Z,12.73
2022-09-11T02:04:07.240Z,17.10
2022-09-11T02:06:41.737Z,9.20
2022-09-11T02:09:14.781Z,9.33
2022-09-11T02:11:45.132Z,8.27
2022-09-11T02:14:21.751Z,9.93
2022-09-11T02:16:52.568Z,8.97
2022-09-11T02:19:25.136Z,10.18
2022-09-11T02:21:54.253Z,10.57
2022-09-11T02:24:23.773Z,11.17
2022-09-11T02:26:56.411Z,10.70
2022-09-11T02:29:26.688Z,8.70
2022-09-11T02:31:55.558Z,9.32
2022-09-11T02:34:28.288Z,12.10
2022-09-11T02:37:14.603Z,11.40
2022-09-11T02:40:11.162Z,13.20
2022-09-11T02:42:52.292Z,9.52
2022-09-11T02:45:34.408Z,9.80
2022-09-11T02:48:14.398Z,8.07
2022-09-11T02:50:50.159Z,8.93
2022-09-11T02:53:26.733Z,7.00
2022-09-11T02:56:01.652Z,9.87
2022-09-11T02:58:34.275Z,8.87
2022-09-11T03:01:05.875Z,8.50
2022-09-11T03:03:40.007Z,8.45
2022-09-11T03:06:11.166Z,9.27
2022-09-11T03:08:39.116Z,7.75
2022-09-11T03:11:07.056Z,9.43
2022-09-11T03:13:34.989Z,7.07
2022-09-11T03:16:05.674Z,8.68
2022-09-11T03:18:33.751Z,11.38
2022-09-11T03:21:01.988Z,7.72
2022-09-11T03:23:30.132Z,11.27
2022-09-11T03:25:58.711Z,11.70
2022-09-11T03:28:27.273Z,9.60
2022-09-11T03:30:55.614Z,7.57
2022-09-11T03:33:25.013Z,7.40
2022-09-11T03:35:52.956Z,10.75
2022-09-11T03:38:21.220Z,7.38
2022-09-11T03:40:49.229Z,7.15
2022-09-11T03:43:17.243Z,12.27
2022-09-11T03:45:45.695Z,7.80
2022-09-11T03:48:13.641Z,9.00
2022-09-11T03:50:43.879Z,9.03
2022-09-11T03:53:11.836Z,9.88
2022-09-11T03:55:39.851Z,10.17
2022-09-11T03:58:09.663Z,8.35
2022-09-11T04:00:37.683Z,8.23
2022-09-11T04:03:05.695Z,9.77
2022-09-11T04:05:33.639Z,7.73
2022-09-11T04:08:03.296Z,7.43
2022-09-11T04:10:32.829Z,11.90
2022-09-11T04:13:01.631Z,11.43
2022-09-11T04:15:29.553Z,13.17
2022-09-11T04:18:00.035Z,10.38
2022-09-11T04:20:30.126Z,9.65
2022-09-11T04:22:58.122Z,8.07
2022-09-11T04:25:27.456Z,7.63
2022-09-11T04:27:55.397Z,8.23
2022-09-11T04:30:23.361Z,10.55
2022-09-11T04:32:51.340Z,9.68
2022-09-11T04:35:19.318Z,11.18
2022-09-11T04:37:47.251Z,10.03
2022-09-11T04:40:15.327Z,12.73
2022-09-11T04:42:44.947Z,8.35
2022-09-11T04:45:13.208Z,8.60
2022-09-11T04:47:41.337Z,10.60
2022-09-11T04:50:10.067Z,10.10
2022-09-11T04:52:39.119Z,9.48
2022-09-11T04:55:07.946Z,8.52
2022-09-11T04:57:35.888Z,9.48
2022-09-11T05:00:06.840Z,12.30
2022-09-11T05:02:34.804Z,8.30
2022-09-11T05:05:02.821Z,7.75
2022-09-11T05:07:32.102Z,8.77
2022-09-11T05:10:00.056Z,10.32
2022-09-11T05:12:28.175Z,7.13
2022-09-11T05:14:56.117Z,7.73
2022-09-11T05:17:25.430Z,10.07
2022-09-11T05:19:53.402Z,11.83
2022-09-11T05:22:21.345Z,8.95
2022-09-11T05:24:49.309Z,8.70
2022-09-11T05:27:17.494Z,8.97
2022-09-11T05:29:45.812Z,8.50
2022-09-11T05:32:14.140Z,11.45
2022-09-11T05:34:43.639Z,9.25
2022-09-11T05:37:11.615Z,9.75
2022-09-11T05:39:39.622Z,12.43
2022-09-11T05:42:07.952Z,9.95
2022-09-11T05:44:37.052Z,12.20
2022-09-11T05:47:06.008Z,8.00
2022-09-11T05:49:33.995Z,9.63
2022-09-11T05:52:03.754Z,10.00
2022-09-11T05:54:32.089Z,10.63
2022-09-11T05:57:06.945Z,11.98
2022-09-11T05:59:36.616Z,15.35
2022-09-11T06:02:04.790Z,12.40
2022-09-11T06:04:34.131Z,14.20
2022-09-11T06:07:03.445Z,11.98
2022-09-11T06:09:31.425Z,11.10
2022-09-11T06:11:59.396Z,10.35
2022-09-11T06:14:27.351Z,10.68
2022-09-11T06:16:57.333Z,8.90
2022-09-11T06:19:25.410Z,10.38
2022-09-11T06:21:53.337Z,11.75
2022-09-11T06:24:22.689Z,12.13
2022-09-11T06:26:50.600Z,10.02
2022-09-11T06:29:19.544Z,11.82
2022-09-11T06:31:51.204Z,9.73
2022-09-11T06:34:20.134Z,13.88
2022-09-11T06:36:51.814Z,11.35
2022-09-11T06:39:22.938Z,9.75
2022-09-11T06:41:51.263Z,15.02
2022-09-11T06:44:19.220Z,13.00
2022-09-11T06:46:47.832Z,11.38
2022-09-11T06:49:16.311Z,15.32
2022-09-11T06:51:44.278Z,13.02
2022-09-11T06:54:12.223Z,11.80
2022-09-11T06:56:42.110Z,13.23
2022-09-11T06:59:10.159Z,10.37
2022-09-11T07:01:39.700Z,11.52
2022-09-11T07:04:08.111Z,10.63
2022-09-11T07:06:38.615Z,12.23
2022-09-11T07:09:06.595Z,8.13
2022-09-11T07:11:36.462Z,9.13
2022-09-11T07:14:06.463Z,10.47
2022-09-11T07:16:34.799Z,7.95
2022-09-11T07:19:03.583Z,8.82
2022-09-11T07:21:31.782Z,8.48
2022-09-11T07:24:01.425Z,10.68
2022-09-11T07:26:30.763Z,10.43
2022-09-11T07:28:59.327Z,11.57
2022-09-11T07:31:30.581Z,12.02
2022-09-11T07:33:58.665Z,10.93
2022-09-11T07:36:28.609Z,11.97
2022-09-11T07:38:57.213Z,11.65
2022-09-11T07:41:26.864Z,12.75
2022-09-11T07:43:56.424Z,12.07
2022-09-11T07:46:26.844Z,9.23
2022-09-11T07:48:56.511Z,13.88
2022-09-11T07:51:26.504Z,9.87
2022-09-11T07:53:55.011Z,9.97
2022-09-11T07:56:24.579Z,10.65
2022-09-11T07:58:53.793Z,8.48
2022-09-11T08:01:23.270Z,9.52
2022-09-11T08:03:58.355Z,9.27
2022-09-11T08:06:27.209Z,8.57
2022-09-11T08:08:57.365Z,10.18
2022-09-11T08:11:26.468Z,8.48
2022-09-11T08:13:56.093Z,10.00
2022-09-11T08:16:26.055Z,9.90
2022-09-11T08:18:56.021Z,13.68
2022-09-11T08:21:26.162Z,8.37
2022-09-11T08:23:54.459Z,9.05
2022-09-11T08:26:24.213Z,10.45
2022-09-11T08:28:54.517Z,10.82
2022-09-11T08:31:26.395Z,10.90
2022-09-11T08:33:56.429Z,9.85
2022-09-11T08:36:24.957Z,9.85
2022-09-11T08:38:53.593Z,7.93
2022-09-11T08:41:30.744Z,8.07
2022-09-11T08:44:03.889Z,9.40
2022-09-11T08:46:36.413Z,7.43
2022-09-11T08:49:11.963Z,7.03
2022-09-11T08:51:40.796Z,8.20
2022-09-11T08:54:21.614Z,9.00
2022-09-11T08:56:52.021Z,7.13
2022-09-11T08:59:30.077Z,7.80
2022-09-11T09:02:12.980Z,6.50
2022-09-11T09:04:56.879Z,6.32
2022-09-11T09:07:32.330Z,7.47
2022-09-11T09:10:05.054Z,5.78
2022-09-11T09:12:41.609Z,7.53
2022-09-11T09:15:19.524Z,7.90
2022-09-11T09:17:53.153Z,8.40
2022-09-11T09:20:27.381Z,8.35
2022-09-11T09:22:58.815Z,6.88
2022-09-11T09:25:27.952Z,6.75
2022-09-11T09:28:00.485Z,8.43
2022-09-11T09:30:31.903Z,8.50
2022-09-11T09:33:05.367Z,8.88
2022-09-11T09:35:41.430Z,10.73
2022-09-11T09:38:13.967Z,9.75
2022-09-11T09:40:52.603Z,10.80
2022-09-11T09:43:33.942Z,11.43
2022-09-11T09:46:14.306Z,12.30
2022-09-11T09:48:42.360Z,11.73
2022-09-11T09:51:14.822Z,11.65
2022-09-11T09:53:47.291Z,11.60
2022-09-11T09:56:19.123Z,13.27
2022-09-11T09:58:54.978Z,12.10
2022-09-11T10:01:45.214Z,10.95
2022-09-11T10:04:17.126Z,10.30
2022-09-11T10:06:48.357Z,10.48
2022-09-11T10:09:22.098Z,11.45
2022-09-11T10:11:57.797Z,9.55
2022-09-11T10:14:50.025Z,9.00
2022-09-11T10:17:22.355Z,10.00
2022-09-11T10:19:51.248Z,9.85
2022-09-11T10:22:25.943Z,8.55
2022-09-11T10:25:05.885Z,9.55
2022-09-11T10:27:40.256Z,10.32
2022-09-11T10:30:26.398Z,10.43
2022-09-11T10:32:55.269Z,8.80
2022-09-11T10:35:25.812Z,9.07
2022-09-11T10:38:09.740Z,12.27
2022-09-11T10:40:40.249Z,10.68
2022-09-11T10:43:24.398Z,9.27
2022-09-11T10:46:07.371Z,10.68
2022-09-11T10:48:42.266Z,8.57
2022-09-11T10:51:13.611Z,10.65
2022-09-11T10:53:56.447Z,9.43
2022-09-11T10:56:25.366Z,8.63
2022-09-11T10:58:56.055Z,9.05
2022-09-11T11:01:24.185Z,7.88
2022-09-11T11:03:52.358Z,7.70
2022-09-11T11:06:35.798Z,7.32
2022-09-11T11:09:31.225Z,7.28
2022-09-11T11:12:19.947Z,7.65
2022-09-11T11:15:13.693Z,9.07
2022-09-11T11:17:50.155Z,6.72
2022-09-11T11:20:27.500Z,6.45
2022-09-11T11:23:18.692Z,5.95
2022-09-11T11:25:57.911Z,5.63
2022-09-11T11:28:40.018Z,7.90
2022-09-11T11:31:17.936Z,7.47
2022-09-11T11:34:03.999Z,5.85
2022-09-11T11:36:37.968Z,7.18
2022-09-11T11:39:16.846Z,5.60
2022-09-11T11:41:50.663Z,5.93
2022-09-11T11:44:33.851Z,7.38
2022-09-11T11:47:05.070Z,6.80
2022-09-11T11:49:49.004Z,8.88
2022-09-11T11:52:27.688Z,5.45
2022-09-11T11:55:03.488Z,6.53
2022-09-11T11:57:41.635Z,5.47
2022-09-11T12:00:14.124Z,5.50
2022-09-11T12:02:48.817Z,5.22
2022-09-11T12:05:19.108Z,6.10
2022-09-11T12:07:48.262Z,5.20
2022-09-11T12:10:25.617Z,5.13
2022-09-11T12:12:59.481Z,4.88
2022-09-11T12:15:32.151Z,9.55
2022-09-11T12:18:05.657Z,6.97
2022-09-11T12:20:40.581Z,5.60
2022-09-11T12:23:55.560Z,5.78
2022-09-11T12:26:24.541Z,6.97
2022-09-11T12:29:51.665Z,5.22
2022-09-11T12:32:26.644Z,6.55
2022-09-11T12:35:02.263Z,5.40
2022-09-11T12:37:37.810Z,4.70
2022-09-11T12:40:16.983Z,4.00
2022-09-11T12:42:49.587Z,4.40
2022-09-11T12:45:34.540Z,6.13
2022-09-11T12:48:12.460Z,4.05
2022-09-11T12:50:41.192Z,5.82
2022-09-11T12:53:18.150Z,4.63
2022-09-11T12:55:56.073Z,4.70
2022-09-11T12:58:34.057Z,4.22
2022-09-11T13:01:13.500Z,4.32
2022-09-11T13:03:51.558Z,4.45
2022-09-11T13:06:20.485Z,4.03
2022-09-11T13:08:52.055Z,5.07
2022-09-11T13:11:40.760Z,4.68
2022-09-11T13:14:38.779Z,5.47
2022-09-11T13:17:16.536Z,4.90
2022-09-11T13:19:44.472Z,5.80
2022-09-11T13:22:31.168Z,5.55
2022-09-11T13:25:10.993Z,5.43
2022-09-11T13:27:40.423Z,5.00
2022-09-11T13:30:09.730Z,5.30
2022-09-11T13:32:39.106Z,5.38
2022-09-11T13:35:14.498Z,6.07
2022-09-11T13:37:47.067Z,4.75
2022-09-11T13:40:22.476Z,5.47
2022-09-11T13:42:50.819Z,5.00
2022-09-11T13:45:22.443Z,6.55
2022-09-11T13:47:54.600Z,9.13
2022-09-11T13:50:23.877Z,5.70
2022-09-11T13:52:54.542Z,5.57
2022-09-11T13:55:27.125Z,5.25
2022-09-11T13:57:58.542Z,7.13
2022-09-11T14:00:40.915Z,4.95
2022-09-11T14:03:20.203Z,5.90
2022-09-11T14:05:54.192Z,4.20
2022-09-11T14:08:28.028Z,5.45
2022-09-11T14:10:59.194Z,4.60
2022-09-11T14:13:33.158Z,4.50
2022-09-11T14:16:05.547Z,4.97
2022-09-11T14:18:37.336Z,5.22
2022-09-11T14:21:13.511Z,5.30
2022-09-11T14:23:44.536Z,4.53
2022-09-11T14:26:18.253Z,5.55
2022-09-11T14:29:00.989Z,5.55
2022-09-11T14:31:35.842Z,7.07
2022-09-11T14:34:15.855Z,7.53
2022-09-11T14:36:48.059Z,5.47
2022-09-11T14:39:24.474Z,7.22
2022-09-11T14:41:53.312Z,10.30
2022-09-11T14:44:22.197Z,8.43
2022-09-11T14:46:50.419Z,10.57
2022-09-11T14:49:19.934Z,9.48
2022-09-11T14:51:54.278Z,8.20
2022-09-11T14:54:23.727Z,9.95
2022-09-11T14:56:52.556Z,8.38
2022-09-11T14:59:20.529Z,10.68
2022-09-11T15:01:52.162Z,12.50
2022-09-11T15:04:23.168Z,14.63
2022-09-11T15:06:53.143Z,14.98
2022-09-11T15:09:21.147Z,12.00
2022-09-11T15:11:50.474Z,8.38
2022-09-11T15:14:38.216Z,7.95
2022-09-11T15:17:09.611Z,10.52
2022-09-11T15:19:39.500Z,8.27
2022-09-11T15:22:07.931Z,9.52
2022-09-11T15:24:36.253Z,12.75
2022-09-11T15:27:04.923Z,19.05
2022-09-11T15:29:34.495Z,22.48
2022-09-11T15:32:03.491Z,12.90
2022-09-11T15:34:33.400Z,14.40
2022-09-11T15:37:02.982Z,12.20
2022-09-11T15:39:31.034Z,14.60
2022-09-11T15:41:59.286Z,15.15
2022-09-11T15:44:28.916Z,17.15
2022-09-11T15:46:58.634Z,13.25
2022-09-11T15:49:29.264Z,16.55
2022-09-11T15:51:58.029Z,21.23
2022-09-11T15:54:28.252Z,28.67
2022-09-11T15:56:56.240Z,25.27
2022-09-11T15:59:24.449Z,28.33
2022-09-11T16:01:52.449Z,41.22
2022-09-11T16:04:23.108Z,32.08
2022-09-11T16:06:54.416Z,29.88
2022-09-11T16:09:24.863Z,27.80
2022-09-11T16:11:55.234Z,27.70
2022-09-11T16:14:25.513Z,28.27
2022-09-11T16:16:54.625Z,25.35
2022-09-11T16:19:27.950Z,26.83
2022-09-11T16:21:57.287Z,30.80
2022-09-11T16:24:26.481Z,29.95
2022-09-11T16:26:56.360Z,28.58
2022-09-11T16:29:25.697Z,25.13
2022-09-11T16:31:54.598Z,17.90
2022-09-11T16:34:22.613Z,22.33
2022-09-11T16:36:50.871Z,18.25
2022-09-11T16:39:20.462Z,14.80
2022-09-11T16:41:48.401Z,13.13
2022-09-11T16:44:18.361Z,10.88
2022-09-11T16:46:46.853Z,12.43
2022-09-11T16:49:17.189Z,13.57
2022-09-11T16:51:45.968Z,15.88
2022-09-11T16:54:14.304Z,16.58
2022-09-11T16:56:45.936Z,18.83
2022-09-11T16:59:15.665Z,17.05
2022-09-11T17:01:45.253Z,19.05
2022-09-11T17:04:13.288Z,23.77
2022-09-11T17:06:41.529Z,28.38
2022-09-11T17:09:09.486Z,31.92
2022-09-11T17:11:37.455Z,24.48
2022-09-11T17:14:05.571Z,27.20
2022-09-11T17:16:35.644Z,24.75
2022-09-11T17:19:05.557Z,25.88
2022-09-11T17:21:35.933Z,23.90
2022-09-11T17:24:05.813Z,21.20
2022-09-11T17:26:34.467Z,21.13
2022-09-11T17:29:03.987Z,20.73
2022-09-11T17:31:32.643Z,18.17
2022-09-11T17:34:00.644Z,13.52
2022-09-11T17:36:30.034Z,12.90
2022-09-11T17:38:59.499Z,12.18
2022-09-11T17:41:27.657Z,8.27
2022-09-11T17:43:55.608Z,7.05
2022-09-11T17:46:24.953Z,6.95
2022-09-11T17:48:53.042Z,6.82
2022-09-11T17:51:24.147Z,8.77
2022-09-11T17:53:55.410Z,8.45
2022-09-11T17:56:25.854Z,8.15
2022-09-11T17:58:55.293Z,8.63
2022-09-11T18:01:25.159Z,10.45
2022-09-11T18:03:54.479Z,9.30
2022-09-11T18:06:26.339Z,13.13
2022-09-11T18:08:56.713Z,13.85
2022-09-11T18:11:25.041Z,15.68
2022-09-11T18:13:54.553Z,15.95
2022-09-11T18:16:22.647Z,17.20
2022-09-11T18:18:51.454Z,17.57
2022-09-11T18:21:19.520Z,18.17
2022-09-11T18:23:47.559Z,18.00
2022-09-11T18:26:25.775Z,16.00
2022-09-11T18:28:57.526Z,17.03
2022-09-11T18:31:30.158Z,16.17
2022-09-11T18:34:00.256Z,22.42
2022-09-11T18:36:29.704Z,19.05
2022-09-11T18:39:01.138Z,20.40
2022-09-11T18:41:32.312Z,19.70
2022-09-11T18:44:01.795Z,18.23
2022-09-11T18:46:31.697Z,16.50
2022-09-11T18:49:00.195Z,15.15
2022-09-11T18:51:28.356Z,10.70
2022-09-11T18:53:56.908Z,10.40
2022-09-11T18:56:28.344Z,9.20
2022-09-11T18:58:57.692Z,8.63
2022-09-11T19:01:29.168Z,8.63
2022-09-11T19:03:57.520Z,10.25
2022-09-11T19:06:27.359Z,8.88
2022-09-11T19:08:56.649Z,10.55
2022-09-11T19:11:26.555Z,9.43
2022-09-11T19:13:56.734Z,7.55
2022-09-11T19:16:26.124Z,7.82
2022-09-11T19:18:54.760Z,8.25
2022-09-11T19:21:23.932Z,8.70
2022-09-11T19:23:55.931Z,9.57
2022-09-11T19:26:25.629Z,8.27
2022-09-11T19:28:55.813Z,9.63
2022-09-11T19:31:28.444Z,10.00
2022-09-11T19:33:57.737Z,8.55
2022-09-11T19:36:27.788Z,9.02
2022-09-11T19:39:00.596Z,7.47
2022-09-11T19:41:31.675Z,7.90
2022-09-11T19:44:01.556Z,7.87
2022-09-11T19:46:32.935Z,7.18
2022-09-11T19:49:03.948Z,7.80
2022-09-11T19:51:33.696Z,10.82
2022-09-11T19:54:03.701Z,10.50
2022-09-11T19:56:33.751Z,14.55
2022-09-11T19:59:02.280Z,11.50
2022-09-11T20:01:32.017Z,13.18
2022-09-11T20:04:00.939Z,16.58
2022-09-11T20:06:32.000Z,12.65
2022-09-11T20:09:29.911Z,15.57
2022-09-11T20:11:49.229Z,13.95
2022-09-11T20:14:17.554Z,11.77
2022-09-11T20:16:47.061Z,12.43
2022-09-11T20:19:15.516Z,12.25
2022-09-11T20:21:43.632Z,12.23
2022-09-11T20:24:11.815Z,10.25
2022-09-11T20:26:39.775Z,9.13
2022-09-11T20:29:12.880Z,8.93
2022-09-11T20:31:47.627Z,9.25
2022-09-11T20:34:18.750Z,11.18
2022-09-11T20:36:47.630Z,14.80
2022-09-11T20:39:16.174Z,9.25
2022-09-11T20:41:44.771Z,10.48
2022-09-11T20:44:13.086Z,9.50
2022-09-11T20:46:43.597Z,9.65
2022-09-11T20:49:12.937Z,11.07
2022-09-11T20:51:42.233Z,9.98
2022-09-11T20:54:10.843Z,10.70
2022-09-11T20:56:39.020Z,10.07
2022-09-11T20:59:06.960Z,11.00
2022-09-11T21:01:35.709Z,11.07
2022-09-11T21:04:05.392Z,10.95
2022-09-11T21:06:35.686Z,11.17
2022-09-11T21:09:07.255Z,9.87
2022-09-11T21:11:36.380Z,11.02
2022-09-11T21:14:04.693Z,10.75
2022-09-11T21:16:33.016Z,11.43
2022-09-11T21:19:02.624Z,12.47
2022-09-11T21:21:31.497Z,13.05
2022-09-11T21:24:01.315Z,13.20
2022-09-11T21:26:31.664Z,12.52
2022-09-11T21:29:01.873Z,15.73
2022-09-11T21:31:30.357Z,13.68
2022-09-11T21:33:58.636Z,11.05
2022-09-11T21:36:26.791Z,12.87
2022-09-11T21:38:54.826Z,14.98
2022-09-11T21:41:22.845Z,13.13
2022-09-11T21:43:52.202Z,14.60
2022-09-11T21:46:20.243Z,12.20
2022-09-11T21:48:48.190Z,12.53
2022-09-11T21:51:17.831Z,11.60
2022-09-11T21:53:47.657Z,12.88
2022-09-11T21:56:21.428Z,15.20
2022-09-11T21:58:51.536Z,12.13
2022-09-11T22:01:20.286Z,13.88
2022-09-11T22:03:48.375Z,11.27
2022-09-11T22:06:16.871Z,11.85
2022-09-11T22:08:47.169Z,9.33
2022-09-11T22:11:16.866Z,12.10
2022-09-11T22:13:45.006Z,9.88
2022-09-11T22:16:16.755Z,12.43
2022-09-11T22:18:47.684Z,13.97
2022-09-11T22:21:16.346Z,11.70
2022-09-11T22:23:44.699Z,13.00
2022-09-11T22:26:15.009Z,16.60
2022-09-11T22:28:43.621Z,12.73
2022-09-11T22:31:15.507Z,11.87
2022-09-11T22:33:43.599Z,10.43
2022-09-11T22:36:13.099Z,12.93
2022-09-11T22:38:41.275Z,10.27
2022-09-11T22:41:09.664Z,11.10
2022-09-11T22:43:37.868Z,17.77
2022-09-11T22:46:06.233Z,10.63
2022-09-11T22:48:35.776Z,10.98
2022-09-11T22:51:04.854Z,14.93
2022-09-11T22:53:33.306Z,10.63
2022-09-11T22:56:01.349Z,12.17
2022-09-11T22:58:30.608Z,13.57
2022-09-11T23:00:59.838Z,13.03
2022-09-11T23:03:28.058Z,9.73
2022-09-11T23:06:15.652Z,14.50
2022-09-11T23:08:45.671Z,16.03
2022-09-11T23:11:16.075Z,15.20
2022-09-11T23:13:44.663Z,16.50
2022-09-11T23:16:15.335Z,16.23
2022-09-11T23:18:44.175Z,17.70
2022-09-11T23:21:14.115Z,16.02
2022-09-11T23:23:42.993Z,18.20
2022-09-11T23:26:12.447Z,17.27
2022-09-11T23:28:40.808Z,14.77
2022-09-11T23:31:12.454Z,14.63
2022-09-11T23:33:40.587Z,12.43
2022-09-11T23:36:09.534Z,14.33
2022-09-11T23:38:39.179Z,14.00
2022-09-11T23:41:07.729Z,14.97
2022-09-11T23:43:35.697Z,17.00
2022-09-11T23:46:03.762Z,13.87
2022-09-11T23:48:31.774Z,17.67
2022-09-11T23:51:01.104Z,16.23
2022-09-11T23:53:29.653Z,14.67
2022-09-11T23:55:59.904Z,16.03
2022-09-11T23:58:27.960Z,18.23
